sensor_id;sensor_type;location;lat;lon;timestamp;P1;durP1;ratioP1;P2;durP2;ratioP2
15693;SDS011;7947;48.834;9.132;2023-04-25T00:02:36;0.87;;;0.83;;
15693;SDS011;7947;48.834;9.132;2023-04-25T00:05:39;1.70;;;0.90;;
15693;SDS011;7947;48.834;9.132;2023-04-25T00:08:44;1.40;;;1.17;;
15693;SDS011;7947;48.834;9.132;2023-04-25T00:11:46;2.33;;;1.63;;
15693;SDS011;7947;48.834;9.132;2023-04-25T00:14:49;2.47;;;1.00;;
15693;SDS011;7947;48.834;9.132;2023-04-25T00:17:52;1.90;;;1.00;;
15693;SDS011;7947;48.834;9.132;2023-04-25T00:20:55;1.20;;;1.00;;
15693;SDS011;7947;48.834;9.132;2023-04-25T00:23:59;1.60;;;1.10;;
15693;SDS011;7947;48.834;9.132;2023-04-25T00:27:02;1.73;;;1.00;;
15693;SDS011;7947;48.834;9.132;2023-04-25T00:30:05;0.80;;;0.70;;
15693;SDS011;7947;48.834;9.132;2023-04-25T00:33:09;1.40;;;0.80;;
15693;SDS011;7947;48.834;9.132;2023-04-25T00:36:12;2.80;;;1.10;;
15693;SDS011;7947;48.834;9.132;2023-04-25T00:39:16;1.77;;;1.13;;
15693;SDS011;7947;48.834;9.132;2023-04-25T00:42:19;3.20;;;1.07;;
15693;SDS011;7947;48.834;9.132;2023-04-25T00:45:22;1.10;;;1.00;;
15693;SDS011;7947;48.834;9.132;2023-04-25T00:48:29;1.23;;;1.07;;
15693;SDS011;7947;48.834;9.132;2023-04-25T00:51:32;1.13;;;0.60;;
15693;SDS011;7947;48.834;9.132;2023-04-25T00:54:36;2.23;;;0.90;;
15693;SDS011;7947;48.834;9.132;2023-04-25T00:57:39;1.13;;;1.03;;
15693;SDS011;7947;48.834;9.132;2023-04-25T01:00:43;1.13;;;1.03;;
15693;SDS011;7947;48.834;9.132;2023-04-25T01:03:47;1.30;;;1.03;;
15693;SDS011;7947;48.834;9.132;2023-04-25T01:06:53;0.70;;;0.70;;
15693;SDS011;7947;48.834;9.132;2023-04-25T01:09:58;1.07;;;0.97;;
15693;SDS011;7947;48.834;9.132;2023-04-25T01:13:01;1.20;;;0.90;;
15693;SDS011;7947;48.834;9.132;2023-04-25T01:16:04;1.33;;;0.87;;
15693;SDS011;7947;48.834;9.132;2023-04-25T01:19:08;2.03;;;1.07;;
15693;SDS011;7947;48.834;9.132;2023-04-25T01:22:14;1.93;;;1.30;;
15693;SDS011;7947;48.834;9.132;2023-04-25T01:25:18;2.90;;;1.23;;
15693;SDS011;7947;48.834;9.132;2023-04-25T01:28:21;2.47;;;1.57;;
15693;SDS011;7947;48.834;9.132;2023-04-25T01:31:24;1.10;;;1.00;;
15693;SDS011;7947;48.834;9.132;2023-04-25T01:34:28;2.33;;;1.00;;
15693;SDS011;7947;48.834;9.132;2023-04-25T01:37:32;0.90;;;0.90;;
15693;SDS011;7947;48.834;9.132;2023-04-25T01:40:36;1.20;;;1.10;;
15693;SDS011;7947;48.834;9.132;2023-04-25T01:43:41;1.40;;;1.00;;
15693;SDS011;7947;48.834;9.132;2023-04-25T01:46:44;1.93;;;1.30;;
15693;SDS011;7947;48.834;9.132;2023-04-25T01:49:47;2.03;;;1.27;;
15693;SDS011;7947;48.834;9.132;2023-04-25T01:52:51;1.73;;;1.23;;
15693;SDS011;7947;48.834;9.132;2023-04-25T01:55:53;2.53;;;1.33;;
15693;SDS011;7947;48.834;9.132;2023-04-25T01:58:56;0.90;;;0.90;;
15693;SDS011;7947;48.834;9.132;2023-04-25T02:01:59;2.50;;;1.40;;
15693;SDS011;7947;48.834;9.132;2023-04-25T02:05:05;2.23;;;1.63;;
15693;SDS011;7947;48.834;9.132;2023-04-25T02:08:10;3.10;;;1.33;;
15693;SDS011;7947;48.834;9.132;2023-04-25T02:11:13;3.27;;;1.57;;
15693;SDS011;7947;48.834;9.132;2023-04-25T02:14:15;1.57;;;1.30;;
15693;SDS011;7947;48.834;9.132;2023-04-25T02:17:18;2.10;;;1.40;;
15693;SDS011;7947;48.834;9.132;2023-04-25T02:20:23;1.50;;;1.27;;
15693;SDS011;7947;48.834;9.132;2023-04-25T02:23:29;2.27;;;1.23;;
15693;SDS011;7947;48.834;9.132;2023-04-25T02:26:32;1.43;;;1.27;;
15693;SDS011;7947;48.834;9.132;2023-04-25T02:29:35;3.80;;;1.73;;
15693;SDS011;7947;48.834;9.132;2023-04-25T02:32:37;1.63;;;1.50;;
15693;SDS011;7947;48.834;9.132;2023-04-25T02:35:40;1.83;;;1.30;;
15693;SDS011;7947;48.834;9.132;2023-04-25T02:38:44;2.93;;;1.40;;
15693;SDS011;7947;48.834;9.132;2023-04-25T02:41:47;1.90;;;1.67;;
15693;SDS011;7947;48.834;9.132;2023-04-25T02:44:50;2.63;;;1.60;;
15693;SDS011;7947;48.834;9.132;2023-04-25T02:47:53;1.60;;;1.50;;
15693;SDS011;7947;48.834;9.132;2023-04-25T02:50:55;2.87;;;1.87;;
15693;SDS011;7947;48.834;9.132;2023-04-25T02:53:59;1.83;;;1.40;;
15693;SDS011;7947;48.834;9.132;2023-04-25T02:57:02;1.27;;;1.17;;
15693;SDS011;7947;48.834;9.132;2023-04-25T03:00:06;2.47;;;1.37;;
15693;SDS011;7947;48.834;9.132;2023-04-25T03:03:09;2.00;;;1.43;;
15693;SDS011;7947;48.834;9.132;2023-04-25T03:06:12;3.33;;;1.43;;
15693;SDS011;7947;48.834;9.132;2023-04-25T03:09:17;1.73;;;1.23;;
15693;SDS011;7947;48.834;9.132;2023-04-25T03:12:19;3.33;;;2.03;;
15693;SDS011;7947;48.834;9.132;2023-04-25T03:15:22;2.20;;;1.70;;
15693;SDS011;7947;48.834;9.132;2023-04-25T03:18:25;1.87;;;1.67;;
15693;SDS011;7947;48.834;9.132;2023-04-25T03:21:27;3.13;;;1.73;;
15693;SDS011;7947;48.834;9.132;2023-04-25T03:24:32;3.10;;;1.47;;
15693;SDS011;7947;48.834;9.132;2023-04-25T03:27:34;1.47;;;1.37;;
15693;SDS011;7947;48.834;9.132;2023-04-25T03:30:37;2.13;;;1.70;;
15693;SDS011;7947;48.834;9.132;2023-04-25T03:33:40;2.27;;;1.63;;
15693;SDS011;7947;48.834;9.132;2023-04-25T03:36:42;3.50;;;1.50;;
15693;SDS011;7947;48.834;9.132;2023-04-25T03:39:47;1.70;;;1.43;;
15693;SDS011;7947;48.834;9.132;2023-04-25T03:42:49;2.20;;;1.73;;
15693;SDS011;7947;48.834;9.132;2023-04-25T03:45:52;1.93;;;1.70;;
15693;SDS011;7947;48.834;9.132;2023-04-25T03:48:55;2.43;;;1.60;;
15693;SDS011;7947;48.834;9.132;2023-04-25T03:51:58;2.07;;;1.83;;
15693;SDS011;7947;48.834;9.132;2023-04-25T03:55:03;1.70;;;1.60;;
15693;SDS011;7947;48.834;9.132;2023-04-25T03:58:06;2.93;;;1.90;;
15693;SDS011;7947;48.834;9.132;2023-04-25T04:01:10;3.57;;;1.73;;
15693;SDS011;7947;48.834;9.132;2023-04-25T04:04:12;2.00;;;1.67;;
15693;SDS011;7947;48.834;9.132;2023-04-25T04:07:15;2.60;;;1.77;;
15693;SDS011;7947;48.834;9.132;2023-04-25T04:10:20;2.60;;;1.80;;
15693;SDS011;7947;48.834;9.132;2023-04-25T04:13:23;1.53;;;1.40;;
15693;SDS011;7947;48.834;9.132;2023-04-25T04:16:26;1.37;;;1.27;;
15693;SDS011;7947;48.834;9.132;2023-04-25T04:19:28;2.20;;;1.70;;
15693;SDS011;7947;48.834;9.132;2023-04-25T04:22:31;4.13;;;1.90;;
15693;SDS011;7947;48.834;9.132;2023-04-25T04:25:35;3.50;;;2.00;;
15693;SDS011;7947;48.834;9.132;2023-04-25T04:28:38;2.57;;;1.67;;
15693;SDS011;7947;48.834;9.132;2023-04-25T04:31:41;2.23;;;1.80;;
15693;SDS011;7947;48.834;9.132;2023-04-25T04:34:44;2.37;;;1.50;;
15693;SDS011;7947;48.834;9.132;2023-04-25T04:37:48;2.17;;;1.90;;
15693;SDS011;7947;48.834;9.132;2023-04-25T04:40:53;4.17;;;2.27;;
15693;SDS011;7947;48.834;9.132;2023-04-25T04:43:55;2.83;;;1.70;;
15693;SDS011;7947;48.834;9.132;2023-04-25T04:46:58;2.43;;;1.80;;
15693;SDS011;7947;48.834;9.132;2023-04-25T04:50:02;2.20;;;1.93;;
15693;SDS011;7947;48.834;9.132;2023-04-25T04:53:06;2.53;;;1.70;;
15693;SDS011;7947;48.834;9.132;2023-04-25T04:56:11;2.77;;;2.10;;
15693;SDS011;7947;48.834;9.132;2023-04-25T04:59:13;2.80;;;2.07;;
15693;SDS011;7947;48.834;9.132;2023-04-25T05:02:16;4.87;;;2.60;;
15693;SDS011;7947;48.834;9.132;2023-04-25T05:05:19;6.43;;;2.97;;
15693;SDS011;7947;48.834;9.132;2023-04-25T05:08:22;7.33;;;3.80;;
15693;SDS011;7947;48.834;9.132;2023-04-25T05:11:26;3.67;;;2.60;;
15693;SDS011;7947;48.834;9.132;2023-04-25T05:14:28;3.77;;;3.00;;
15693;SDS011;7947;48.834;9.132;2023-04-25T05:17:31;2.90;;;1.90;;
15693;SDS011;7947;48.834;9.132;2023-04-25T05:20:34;3.47;;;2.70;;
15693;SDS011;7947;48.834;9.132;2023-04-25T05:23:37;3.17;;;2.47;;
15693;SDS011;7947;48.834;9.132;2023-04-25T05:26:41;3.43;;;2.00;;
15693;SDS011;7947;48.834;9.132;2023-04-25T05:29:44;2.73;;;2.20;;
15693;SDS011;7947;48.834;9.132;2023-04-25T05:32:47;2.47;;;2.10;;
15693;SDS011;7947;48.834;9.132;2023-04-25T05:35:50;2.60;;;2.10;;
15693;SDS011;7947;48.834;9.132;2023-04-25T05:38:52;2.67;;;2.27;;
15693;SDS011;7947;48.834;9.132;2023-04-25T05:41:56;2.57;;;2.17;;
15693;SDS011;7947;48.834;9.132;2023-04-25T05:44:59;2.97;;;2.30;;
15693;SDS011;7947;48.834;9.132;2023-04-25T05:48:02;3.30;;;2.20;;
15693;SDS011;7947;48.834;9.132;2023-04-25T05:51:05;2.93;;;2.27;;
15693;SDS011;7947;48.834;9.132;2023-04-25T05:54:08;2.67;;;2.30;;
15693;SDS011;7947;48.834;9.132;2023-04-25T05:57:19;3.53;;;2.07;;
15693;SDS011;7947;48.834;9.132;2023-04-25T06:00:23;2.43;;;1.97;;
15693;SDS011;7947;48.834;9.132;2023-04-25T06:03:25;3.47;;;2.30;;
15693;SDS011;7947;48.834;9.132;2023-04-25T06:06:29;3.97;;;2.20;;
15693;SDS011;7947;48.834;9.132;2023-04-25T06:09:31;3.67;;;2.20;;
15693;SDS011;7947;48.834;9.132;2023-04-25T06:12:35;2.47;;;1.97;;
15693;SDS011;7947;48.834;9.132;2023-04-25T06:15:39;2.17;;;1.73;;
15693;SDS011;7947;48.834;9.132;2023-04-25T06:18:42;2.13;;;1.90;;
15693;SDS011;7947;48.834;9.132;2023-04-25T06:21:45;2.60;;;2.13;;
15693;SDS011;7947;48.834;9.132;2023-04-25T06:24:47;2.57;;;1.87;;
15693;SDS011;7947;48.834;9.132;2023-04-25T06:27:51;3.23;;;2.93;;
15693;SDS011;7947;48.834;9.132;2023-04-25T06:30:54;2.87;;;2.20;;
15693;SDS011;7947;48.834;9.132;2023-04-25T06:33:57;2.67;;;1.90;;
15693;SDS011;7947;48.834;9.132;2023-04-25T06:37:00;3.30;;;2.00;;
15693;SDS011;7947;48.834;9.132;2023-04-25T06:40:04;3.30;;;2.00;;
15693;SDS011;7947;48.834;9.132;2023-04-25T06:43:09;3.67;;;2.20;;
15693;SDS011;7947;48.834;9.132;2023-04-25T06:46:12;2.27;;;1.93;;
15693;SDS011;7947;48.834;9.132;2023-04-25T06:49:15;4.27;;;2.20;;
15693;SDS011;7947;48.834;9.132;2023-04-25T06:52:20;3.87;;;2.23;;
15693;SDS011;7947;48.834;9.132;2023-04-25T06:55:23;3.03;;;2.30;;
15693;SDS011;7947;48.834;9.132;2023-04-25T06:58:27;3.97;;;2.20;;
15693;SDS011;7947;48.834;9.132;2023-04-25T07:01:30;4.13;;;2.60;;
15693;SDS011;7947;48.834;9.132;2023-04-25T07:04:33;3.30;;;2.27;;
15693;SDS011;7947;48.834;9.132;2023-04-25T07:07:36;3.90;;;3.00;;
15693;SDS011;7947;48.834;9.132;2023-04-25T07:10:38;3.07;;;2.30;;
15693;SDS011;7947;48.834;9.132;2023-04-25T07:13:43;3.80;;;2.40;;
15693;SDS011;7947;48.834;9.132;2023-04-25T07:16:45;3.60;;;2.20;;
15693;SDS011;7947;48.834;9.132;2023-04-25T07:19:48;2.83;;;2.20;;
15693;SDS011;7947;48.834;9.132;2023-04-25T07:22:51;5.03;;;2.20;;
15693;SDS011;7947;48.834;9.132;2023-04-25T07:25:54;2.92;;;2.58;;
15693;SDS011;7947;48.834;9.132;2023-04-25T07:28:58;4.40;;;2.63;;
15693;SDS011;7947;48.834;9.132;2023-04-25T07:32:01;3.53;;;2.57;;
15693;SDS011;7947;48.834;9.132;2023-04-25T07:35:04;3.17;;;2.30;;
15693;SDS011;7947;48.834;9.132;2023-04-25T07:38:08;3.60;;;2.57;;
15693;SDS011;7947;48.834;9.132;2023-04-25T07:41:11;2.83;;;2.53;;
15693;SDS011;7947;48.834;9.132;2023-04-25T07:44:15;4.10;;;2.90;;
15693;SDS011;7947;48.834;9.132;2023-04-25T07:47:18;4.00;;;2.60;;
15693;SDS011;7947;48.834;9.132;2023-04-25T07:50:21;2.47;;;2.10;;
15693;SDS011;7947;48.834;9.132;2023-04-25T07:53:24;3.53;;;2.10;;
15693;SDS011;7947;48.834;9.132;2023-04-25T07:56:27;3.00;;;2.60;;
15693;SDS011;7947;48.834;9.132;2023-04-25T07:59:46;6.10;;;2.30;;
15693;SDS011;7947;48.834;9.132;2023-04-25T08:02:49;3.63;;;2.20;;
15693;SDS011;7947;48.834;9.132;2023-04-25T08:05:53;3.33;;;2.23;;
15693;SDS011;7947;48.834;9.132;2023-04-25T08:08:57;4.17;;;2.17;;
15693;SDS011;7947;48.834;9.132;2023-04-25T08:11:59;2.80;;;2.17;;
15693;SDS011;7947;48.834;9.132;2023-04-25T08:15:05;3.40;;;2.30;;
15693;SDS011;7947;48.834;9.132;2023-04-25T08:18:08;3.03;;;2.20;;
15693;SDS011;7947;48.834;9.132;2023-04-25T08:21:11;3.80;;;2.23;;
15693;SDS011;7947;48.834;9.132;2023-04-25T08:24:14;3.40;;;2.43;;
15693;SDS011;7947;48.834;9.132;2023-04-25T08:27:17;3.03;;;2.40;;
15693;SDS011;7947;48.834;9.132;2023-04-25T08:30:21;3.00;;;2.60;;
15693;SDS011;7947;48.834;9.132;2023-04-25T08:33:24;4.27;;;2.40;;
15693;SDS011;7947;48.834;9.132;2023-04-25T08:36:27;2.40;;;2.20;;
15693;SDS011;7947;48.834;9.132;2023-04-25T08:39:33;3.90;;;2.67;;
15693;SDS011;7947;48.834;9.132;2023-04-25T08:42:35;2.27;;;2.07;;
15693;SDS011;7947;48.834;9.132;2023-04-25T08:45:41;5.13;;;2.97;;
15693;SDS011;7947;48.834;9.132;2023-04-25T08:48:45;3.05;;;2.72;;
15693;SDS011;7947;48.834;9.132;2023-04-25T08:51:48;2.90;;;2.38;;
15693;SDS011;7947;48.834;9.132;2023-04-25T08:54:52;3.83;;;2.40;;
15693;SDS011;7947;48.834;9.132;2023-04-25T08:57:57;3.37;;;2.63;;
15693;SDS011;7947;48.834;9.132;2023-04-25T09:01:03;3.83;;;2.27;;
15693;SDS011;7947;48.834;9.132;2023-04-25T09:04:06;2.90;;;2.47;;
15693;SDS011;7947;48.834;9.132;2023-04-25T09:07:09;2.57;;;2.30;;
15693;SDS011;7947;48.834;9.132;2023-04-25T09:10:12;2.70;;;2.30;;
15693;SDS011;7947;48.834;9.132;2023-04-25T09:13:23;4.60;;;2.37;;
15693;SDS011;7947;48.834;9.132;2023-04-25T09:16:28;2.63;;;2.10;;
15693;SDS011;7947;48.834;9.132;2023-04-25T09:19:34;3.00;;;2.10;;
15693;SDS011;7947;48.834;9.132;2023-04-25T09:22:42;2.90;;;2.23;;
15693;SDS011;7947;48.834;9.132;2023-04-25T09:25:48;2.40;;;2.20;;
15693;SDS011;7947;48.834;9.132;2023-04-25T09:28:59;3.07;;;2.70;;
15693;SDS011;7947;48.834;9.132;2023-04-25T09:32:18;5.40;;;2.57;;
15693;SDS011;7947;48.834;9.132;2023-04-25T09:35:23;3.00;;;2.50;;
15693;SDS011;7947;48.834;9.132;2023-04-25T09:38:27;3.83;;;2.60;;
15693;SDS011;7947;48.834;9.132;2023-04-25T09:41:33;2.63;;;2.20;;
15693;SDS011;7947;48.834;9.132;2023-04-25T09:44:41;3.03;;;2.43;;
15693;SDS011;7947;48.834;9.132;2023-04-25T09:47:47;2.70;;;2.37;;
15693;SDS011;7947;48.834;9.132;2023-04-25T09:51:03;3.00;;;2.30;;
15693;SDS011;7947;48.834;9.132;2023-04-25T09:54:06;3.47;;;2.53;;
15693;SDS011;7947;48.834;9.132;2023-04-25T09:57:13;2.53;;;2.10;;
15693;SDS011;7947;48.834;9.132;2023-04-25T10:00:17;2.73;;;1.90;;
15693;SDS011;7947;48.834;9.132;2023-04-25T10:03:23;3.40;;;1.87;;
15693;SDS011;7947;48.834;9.132;2023-04-25T10:06:28;1.67;;;1.47;;
15693;SDS011;7947;48.834;9.132;2023-04-25T10:09:33;2.97;;;1.60;;
15693;SDS011;7947;48.834;9.132;2023-04-25T10:12:38;2.13;;;1.73;;
15693;SDS011;7947;48.834;9.132;2023-04-25T10:15:44;1.93;;;1.40;;
15693;SDS011;7947;48.834;9.132;2023-04-25T10:18:50;2.10;;;1.63;;
15693;SDS011;7947;48.834;9.132;2023-04-25T10:21:55;2.33;;;1.67;;
15693;SDS011;7947;48.834;9.132;2023-04-25T10:25:04;2.67;;;1.70;;
15693;SDS011;7947;48.834;9.132;2023-04-25T10:28:09;2.50;;;1.80;;
15693;SDS011;7947;48.834;9.132;2023-04-25T10:31:12;2.40;;;2.13;;
15693;SDS011;7947;48.834;9.132;2023-04-25T10:34:23;2.67;;;2.43;;
15693;SDS011;7947;48.834;9.132;2023-04-25T10:37:28;3.27;;;2.53;;
15693;SDS011;7947;48.834;9.132;2023-04-25T10:40:32;3.53;;;2.90;;
15693;SDS011;7947;48.834;9.132;2023-04-25T10:43:36;3.87;;;3.00;;
15693;SDS011;7947;48.834;9.132;2023-04-25T10:46:40;3.60;;;2.70;;
15693;SDS011;7947;48.834;9.132;2023-04-25T10:49:45;3.50;;;2.27;;
15693;SDS011;7947;48.834;9.132;2023-04-25T10:52:52;4.50;;;2.30;;
15693;SDS011;7947;48.834;9.132;2023-04-25T10:55:56;2.30;;;1.97;;
15693;SDS011;7947;48.834;9.132;2023-04-25T10:59:05;2.90;;;2.37;;
15693;SDS011;7947;48.834;9.132;2023-04-25T11:02:11;2.90;;;1.70;;
15693;SDS011;7947;48.834;9.132;2023-04-25T11:05:18;3.10;;;1.90;;
15693;SDS011;7947;48.834;9.132;2023-04-25T11:08:26;1.70;;;1.40;;
15693;SDS011;7947;48.834;9.132;2023-04-25T11:11:41;2.03;;;1.57;;
15693;SDS011;7947;48.834;9.132;2023-04-25T11:14:44;1.87;;;1.60;;
15693;SDS011;7947;48.834;9.132;2023-04-25T11:17:47;2.60;;;1.60;;
15693;SDS011;7947;48.834;9.132;2023-04-25T11:20:51;1.43;;;1.33;;
15693;SDS011;7947;48.834;9.132;2023-04-25T11:23:54;2.00;;;1.60;;
15693;SDS011;7947;48.834;9.132;2023-04-25T11:26:58;1.50;;;1.20;;
15693;SDS011;7947;48.834;9.132;2023-04-25T11:30:10;3.13;;;1.30;;
15693;SDS011;7947;48.834;9.132;2023-04-25T11:33:14;2.87;;;1.50;;
15693;SDS011;7947;48.834;9.132;2023-04-25T11:36:18;1.70;;;1.47;;
15693;SDS011;7947;48.834;9.132;2023-04-25T11:39:21;2.17;;;1.60;;
15693;SDS011;7947;48.834;9.132;2023-04-25T11:42:26;1.90;;;1.47;;
15693;SDS011;7947;48.834;9.132;2023-04-25T11:45:29;1.83;;;1.60;;
15693;SDS011;7947;48.834;9.132;2023-04-25T11:48:36;2.67;;;1.73;;
15693;SDS011;7947;48.834;9.132;2023-04-25T11:51:41;2.50;;;1.73;;
15693;SDS011;7947;48.834;9.132;2023-04-25T11:54:45;2.43;;;1.97;;
15693;SDS011;7947;48.834;9.132;2023-04-25T11:57:48;3.50;;;2.33;;
15693;SDS011;7947;48.834;9.132;2023-04-25T12:00:52;2.13;;;1.60;;
15693;SDS011;7947;48.834;9.132;2023-04-25T12:03:55;2.43;;;2.10;;
15693;SDS011;7947;48.834;9.132;2023-04-25T12:07:00;2.63;;;1.90;;
15693;SDS011;7947;48.834;9.132;2023-04-25T12:10:04;3.57;;;2.30;;
15693;SDS011;7947;48.834;9.132;2023-04-25T12:13:18;2.90;;;2.50;;
15693;SDS011;7947;48.834;9.132;2023-04-25T12:16:23;3.33;;;2.60;;
15693;SDS011;7947;48.834;9.132;2023-04-25T12:19:26;4.33;;;2.50;;
15693;SDS011;7947;48.834;9.132;2023-04-25T12:22:35;5.27;;;2.90;;
15693;SDS011;7947;48.834;9.132;2023-04-25T12:25:39;3.93;;;3.17;;
15693;SDS011;7947;48.834;9.132;2023-04-25T12:28:44;5.00;;;3.17;;
15693;SDS011;7947;48.834;9.132;2023-04-25T12:31:49;4.70;;;3.27;;
15693;SDS011;7947;48.834;9.132;2023-04-25T12:34:52;3.57;;;2.50;;
15693;SDS011;7947;48.834;9.132;2023-04-25T12:37:57;5.23;;;3.50;;
15693;SDS011;7947;48.834;9.132;2023-04-25T12:41:00;4.47;;;3.30;;
15693;SDS011;7947;48.834;9.132;2023-04-25T12:44:03;4.80;;;3.30;;
15693;SDS011;7947;48.834;9.132;2023-04-25T12:47:06;7.20;;;3.37;;
15693;SDS011;7947;48.834;9.132;2023-04-25T12:50:09;5.37;;;3.20;;
15693;SDS011;7947;48.834;9.132;2023-04-25T12:53:14;6.27;;;3.20;;
15693;SDS011;7947;48.834;9.132;2023-04-25T12:56:17;5.47;;;3.57;;
15693;SDS011;7947;48.834;9.132;2023-04-25T12:59:23;4.20;;;3.03;;
15693;SDS011;7947;48.834;9.132;2023-04-25T13:02:26;4.43;;;3.17;;
15693;SDS011;7947;48.834;9.132;2023-04-25T13:05:30;5.17;;;2.80;;
15693;SDS011;7947;48.834;9.132;2023-04-25T13:08:34;4.33;;;3.30;;
15693;SDS011;7947;48.834;9.132;2023-04-25T13:11:38;4.33;;;3.50;;
15693;SDS011;7947;48.834;9.132;2023-04-25T13:14:41;6.27;;;3.50;;
15693;SDS011;7947;48.834;9.132;2023-04-25T13:17:44;4.00;;;3.37;;
15693;SDS011;7947;48.834;9.132;2023-04-25T13:20:47;5.00;;;3.70;;
15693;SDS011;7947;48.834;9.132;2023-04-25T13:23:51;9.20;;;4.13;;
15693;SDS011;7947;48.834;9.132;2023-04-25T13:26:55;5.30;;;4.00;;
15693;SDS011;7947;48.834;9.132;2023-04-25T13:29:58;7.70;;;5.27;;
15693;SDS011;7947;48.834;9.132;2023-04-25T13:33:01;9.00;;;4.80;;
15693;SDS011;7947;48.834;9.132;2023-04-25T13:36:04;6.87;;;4.70;;
15693;SDS011;7947;48.834;9.132;2023-04-25T13:39:09;6.57;;;4.70;;
15693;SDS011;7947;48.834;9.132;2023-04-25T13:42:13;7.97;;;4.73;;
15693;SDS011;7947;48.834;9.132;2023-04-25T13:45:17;7.60;;;5.13;;
15693;SDS011;7947;48.834;9.132;2023-04-25T13:48:20;8.23;;;4.40;;
15693;SDS011;7947;48.834;9.132;2023-04-25T13:51:23;5.73;;;4.23;;
15693;SDS011;7947;48.834;9.132;2023-04-25T13:54:29;5.87;;;4.30;;
15693;SDS011;7947;48.834;9.132;2023-04-25T13:57:31;5.13;;;3.57;;
15693;SDS011;7947;48.834;9.132;2023-04-25T14:00:35;7.33;;;4.33;;
15693;SDS011;7947;48.834;9.132;2023-04-25T14:03:39;7.80;;;4.07;;
15693;SDS011;7947;48.834;9.132;2023-04-25T14:06:42;6.73;;;4.50;;
15693;SDS011;7947;48.834;9.132;2023-04-25T14:09:47;5.78;;;4.00;;
15693;SDS011;7947;48.834;9.132;2023-04-25T14:12:50;6.60;;;3.90;;
15693;SDS011;7947;48.834;9.132;2023-04-25T14:15:53;4.50;;;3.53;;
15693;SDS011;7947;48.834;9.132;2023-04-25T14:18:57;3.95;;;2.88;;
15693;SDS011;7947;48.834;9.132;2023-04-25T14:22:00;3.65;;;3.28;;
15693;SDS011;7947;48.834;9.132;2023-04-25T14:25:07;4.97;;;3.22;;
15693;SDS011;7947;48.834;9.132;2023-04-25T14:28:10;6.40;;;3.50;;
15693;SDS011;7947;48.834;9.132;2023-04-25T14:31:13;5.03;;;3.28;;
15693;SDS011;7947;48.834;9.132;2023-04-25T14:34:17;5.75;;;3.08;;
15693;SDS011;7947;48.834;9.132;2023-04-25T14:37:19;5.15;;;2.90;;
15693;SDS011;7947;48.834;9.132;2023-04-25T14:40:24;5.53;;;3.40;;
15693;SDS011;7947;48.834;9.132;2023-04-25T14:43:28;3.45;;;3.00;;
15693;SDS011;7947;48.834;9.132;2023-04-25T14:46:31;6.03;;;3.55;;
15693;SDS011;7947;48.834;9.132;2023-04-25T14:49:34;4.93;;;3.33;;
15693;SDS011;7947;48.834;9.132;2023-04-25T14:52:36;4.10;;;3.15;;
15693;SDS011;7947;48.834;9.132;2023-04-25T14:55:41;5.15;;;3.40;;
15693;SDS011;7947;48.834;9.132;2023-04-25T14:58:44;5.85;;;3.40;;
15693;SDS011;7947;48.834;9.132;2023-04-25T15:01:47;4.90;;;3.25;;
15693;SDS011;7947;48.834;9.132;2023-04-25T15:04:50;7.07;;;3.03;;
15693;SDS011;7947;48.834;9.132;2023-04-25T15:07:53;7.80;;;3.28;;
15693;SDS011;7947;48.834;9.132;2023-04-25T15:10:57;5.35;;;3.47;;
15693;SDS011;7947;48.834;9.132;2023-04-25T15:14:01;4.68;;;3.25;;
15693;SDS011;7947;48.834;9.132;2023-04-25T15:17:04;3.78;;;3.08;;
15693;SDS011;7947;48.834;9.132;2023-04-25T15:20:07;6.70;;;3.08;;
15693;SDS011;7947;48.834;9.132;2023-04-25T15:23:11;4.82;;;2.65;;
15693;SDS011;7947;48.834;9.132;2023-04-25T15:26:15;4.63;;;3.03;;
15693;SDS011;7947;48.834;9.132;2023-04-25T15:29:18;3.78;;;2.70;;
15693;SDS011;7947;48.834;9.132;2023-04-25T15:32:21;4.75;;;3.08;;
15693;SDS011;7947;48.834;9.132;2023-04-25T15:35:25;5.72;;;3.08;;
15693;SDS011;7947;48.834;9.132;2023-04-25T15:38:28;4.97;;;2.60;;
15693;SDS011;7947;48.834;9.132;2023-04-25T15:41:32;3.50;;;3.20;;
15693;SDS011;7947;48.834;9.132;2023-04-25T15:44:35;4.50;;;3.10;;
15693;SDS011;7947;48.834;9.132;2023-04-25T15:47:38;5.93;;;3.58;;
15693;SDS011;7947;48.834;9.132;2023-04-25T15:50:41;4.82;;;3.30;;
15693;SDS011;7947;48.834;9.132;2023-04-25T15:53:44;5.20;;;3.92;;
15693;SDS011;7947;48.834;9.132;2023-04-25T15:56:48;4.70;;;3.17;;
15693;SDS011;7947;48.834;9.132;2023-04-25T15:59:51;6.55;;;3.60;;
15693;SDS011;7947;48.834;9.132;2023-04-25T16:02:54;4.38;;;3.70;;
15693;SDS011;7947;48.834;9.132;2023-04-25T16:05:57;4.07;;;3.28;;
15693;SDS011;7947;48.834;9.132;2023-04-25T16:09:00;6.32;;;3.70;;
15693;SDS011;7947;48.834;9.132;2023-04-25T16:12:05;7.47;;;3.42;;
15693;SDS011;7947;48.834;9.132;2023-04-25T16:15:08;6.28;;;3.10;;
15693;SDS011;7947;48.834;9.132;2023-04-25T16:18:11;3.72;;;2.80;;
15693;SDS011;7947;48.834;9.132;2023-04-25T16:21:14;3.35;;;2.90;;
15693;SDS011;7947;48.834;9.132;2023-04-25T16:24:17;3.33;;;2.92;;
15693;SDS011;7947;48.834;9.132;2023-04-25T16:27:21;6.47;;;3.08;;
15693;SDS011;7947;48.834;9.132;2023-04-25T16:30:24;5.28;;;3.60;;
15693;SDS011;7947;48.834;9.132;2023-04-25T16:33:27;5.47;;;2.92;;
15693;SDS011;7947;48.834;9.132;2023-04-25T16:36:30;5.45;;;4.05;;
15693;SDS011;7947;48.834;9.132;2023-04-25T16:39:33;4.18;;;3.40;;
15693;SDS011;7947;48.834;9.132;2023-04-25T16:42:37;5.18;;;3.17;;
15693;SDS011;7947;48.834;9.132;2023-04-25T16:45:40;3.77;;;3.30;;
15693;SDS011;7947;48.834;9.132;2023-04-25T16:48:43;4.22;;;2.85;;
15693;SDS011;7947;48.834;9.132;2023-04-25T16:51:46;5.00;;;3.33;;
15693;SDS011;7947;48.834;9.132;2023-04-25T16:54:48;3.90;;;3.10;;
15693;SDS011;7947;48.834;9.132;2023-04-25T16:57:52;4.57;;;2.77;;
15693;SDS011;7947;48.834;9.132;2023-04-25T17:00:55;4.67;;;3.60;;
15693;SDS011;7947;48.834;9.132;2023-04-25T17:03:58;5.07;;;3.33;;
15693;SDS011;7947;48.834;9.132;2023-04-25T17:07:01;4.23;;;3.40;;
15693;SDS011;7947;48.834;9.132;2023-04-25T17:10:04;5.10;;;3.53;;
15693;SDS011;7947;48.834;9.132;2023-04-25T17:13:08;3.65;;;3.10;;
15693;SDS011;7947;48.834;9.132;2023-04-25T17:16:11;5.15;;;3.42;;
15693;SDS011;7947;48.834;9.132;2023-04-25T17:19:16;4.00;;;3.28;;
15693;SDS011;7947;48.834;9.132;2023-04-25T17:22:19;5.00;;;3.67;;
15693;SDS011;7947;48.834;9.132;2023-04-25T17:25:22;5.70;;;3.00;;
15693;SDS011;7947;48.834;9.132;2023-04-25T17:28:27;5.13;;;3.20;;
15693;SDS011;7947;48.834;9.132;2023-04-25T17:31:29;4.75;;;3.30;;
15693;SDS011;7947;48.834;9.132;2023-04-25T17:34:32;5.30;;;4.03;;
15693;SDS011;7947;48.834;9.132;2023-04-25T17:37:37;6.50;;;3.33;;
15693;SDS011;7947;48.834;9.132;2023-04-25T17:40:41;5.00;;;3.28;;
15693;SDS011;7947;48.834;9.132;2023-04-25T17:43:45;5.70;;;2.33;;
15693;SDS011;7947;48.834;9.132;2023-04-25T17:46:47;2.80;;;2.17;;
15693;SDS011;7947;48.834;9.132;2023-04-25T17:49:51;5.30;;;2.50;;
15693;SDS011;7947;48.834;9.132;2023-04-25T17:52:54;3.00;;;2.50;;
15693;SDS011;7947;48.834;9.132;2023-04-25T17:55:57;3.80;;;2.70;;
15693;SDS011;7947;48.834;9.132;2023-04-25T17:59:01;4.10;;;2.87;;
15693;SDS011;7947;48.834;9.132;2023-04-25T18:02:04;5.60;;;2.53;;
15693;SDS011;7947;48.834;9.132;2023-04-25T18:05:07;3.33;;;2.83;;
15693;SDS011;7947;48.834;9.132;2023-04-25T18:08:12;4.30;;;2.70;;
15693;SDS011;7947;48.834;9.132;2023-04-25T18:11:15;5.83;;;3.30;;
15693;SDS011;7947;48.834;9.132;2023-04-25T18:14:19;7.27;;;3.37;;
15693;SDS011;7947;48.834;9.132;2023-04-25T18:17:23;4.87;;;3.23;;
15693;SDS011;7947;48.834;9.132;2023-04-25T18:20:25;5.27;;;3.33;;
15693;SDS011;7947;48.834;9.132;2023-04-25T18:23:28;6.03;;;3.40;;
15693;SDS011;7947;48.834;9.132;2023-04-25T18:26:32;5.30;;;3.90;;
15693;SDS011;7947;48.834;9.132;2023-04-25T18:29:36;5.27;;;3.77;;
15693;SDS011;7947;48.834;9.132;2023-04-25T18:32:39;5.60;;;3.70;;
15693;SDS011;7947;48.834;9.132;2023-04-25T18:35:44;6.33;;;3.40;;
15693;SDS011;7947;48.834;9.132;2023-04-25T18:38:58;6.73;;;3.50;;
15693;SDS011;7947;48.834;9.132;2023-04-25T18:42:24;6.00;;;3.90;;
15693;SDS011;7947;48.834;9.132;2023-04-25T18:45:28;5.03;;;3.23;;